createdAt,value
2022-12-11T00:00:55.540Z,-1.40
2022-12-11T00:03:24.392Z,-1.50
2022-12-11T00:05:52.783Z,-1.40
2022-12-11T00:08:22.933Z,-1.50
2022-12-11T00:10:53.212Z,-1.40
2022-12-11T00:13:21.792Z,-1.40
2022-12-11T00:15:50.377Z,-1.40
2022-12-11T00:18:18.958Z,-1.40
2022-12-11T00:20:49.481Z,-1.40
2022-12-11T00:23:18.174Z,-1.40
2022-12-11T00:25:50.753Z,-1.40
2022-12-11T00:28:20.613Z,-1.40
2022-12-11T00:30:49.372Z,-1.40
2022-12-11T00:33:18.363Z,-1.30
2022-12-11T00:35:48.792Z,-1.40
2022-12-11T00:38:21.881Z,-1.30
2022-12-11T00:40:55.354Z,-1.30
2022-12-11T00:43:24.246Z,-1.40
2022-12-11T00:45:52.791Z,-1.30
2022-12-11T00:48:21.945Z,-1.30
2022-12-11T00:50:52.068Z,-1.30
2022-12-11T00:53:22.165Z,-1.30
2022-12-11T00:55:52.588Z,-1.20
2022-12-11T00:58:21.029Z,-1.20
2022-12-11T01:00:50.779Z,-1.20
2022-12-11T01:03:20.311Z,-1.20
2022-12-11T01:06:04.160Z,-1.20
2022-12-11T01:08:38.300Z,-1.20
2022-12-11T01:11:11.020Z,-1.20
2022-12-11T01:13:42.974Z,-1.20
2022-12-11T01:16:17.042Z,-1.20
2022-12-11T01:18:45.814Z,-1.20
2022-12-11T01:21:16.557Z,-1.20
2022-12-11T01:23:48.315Z,-1.10
2022-12-11T01:26:19.090Z,-1.10
2022-12-11T01:28:51.086Z,-1.10
2022-12-11T01:31:21.051Z,-1.10
2022-12-11T01:33:52.279Z,-1.20
2022-12-11T01:36:22.768Z,-1.20
2022-12-11T01:38:51.972Z,-1.20
2022-12-11T01:41:23.326Z,-1.20
2022-12-11T01:44:00.618Z,-1.20
2022-12-11T01:46:30.876Z,-1.20
2022-12-11T01:49:00.471Z,-1.20
2022-12-11T01:51:32.879Z,-1.20
2022-12-11T01:54:05.422Z,-1.20
2022-12-11T01:56:38.682Z,-1.20
2022-12-11T01:59:09.841Z,-1.20
2022-12-11T02:01:43.588Z,-1.20
2022-12-11T02:04:17.258Z,-1.30
2022-12-11T02:06:49.074Z,-1.20
2022-12-11T02:09:21.368Z,-1.20
2022-12-11T02:11:57.499Z,-1.10
2022-12-11T02:14:34.733Z,-1.00
2022-12-11T02:17:07.286Z,-1.10
2022-12-11T02:19:59.936Z,-1.00
2022-12-11T02:22:44.393Z,-1.10
2022-12-11T02:25:22.529Z,-1.10
2022-12-11T02:27:59.175Z,-1.20
2022-12-11T02:30:30.232Z,-1.10
2022-12-11T02:33:00.232Z,-1.20
2022-12-11T02:35:34.999Z,-1.20
2022-12-11T02:38:06.888Z,-1.20
2022-12-11T02:40:38.616Z,-1.20
2022-12-11T02:43:11.501Z,-1.20
2022-12-11T02:45:43.059Z,-1.20
2022-12-11T02:48:14.400Z,-1.20
2022-12-11T02:50:47.358Z,-1.20
2022-12-11T02:53:20.435Z,-1.10
2022-12-11T02:55:54.310Z,-1.10
2022-12-11T02:58:28.427Z,-1.10
2022-12-11T03:00:58.621Z,-1.10
2022-12-11T03:03:27.837Z,-1.10
2022-12-11T03:05:57.490Z,-1.10
2022-12-11T03:08:28.059Z,-1.20
2022-12-11T03:10:58.351Z,-1.20
2022-12-11T03:13:27.668Z,-1.10
2022-12-11T03:16:11.422Z,-1.10
2022-12-11T03:18:46.445Z,-1.10
2022-12-11T03:21:21.084Z,-1.10
2022-12-11T03:23:53.793Z,-1.10
2022-12-11T03:26:25.067Z,-1.10
2022-12-11T03:28:59.238Z,-1.10
2022-12-11T03:31:38.279Z,-1.10
2022-12-11T03:34:13.748Z,-1.10
2022-12-11T03:36:45.839Z,-1.10
2022-12-11T03:39:20.359Z,-1.20
2022-12-11T03:41:51.755Z,-1.20
2022-12-11T03:44:22.184Z,-1.20
2022-12-11T03:46:55.238Z,-1.20
2022-12-11T03:49:29.404Z,-1.10
2022-12-11T03:51:59.486Z,-1.20
2022-12-11T03:54:28.865Z,-1.10
2022-12-11T03:57:00.827Z,-1.10
2022-12-11T03:59:29.705Z,-1.10
2022-12-11T04:02:00.409Z,-1.20
2022-12-11T04:04:29.065Z,-1.10
2022-12-11T04:06:59.584Z,-1.20
2022-12-11T04:09:28.207Z,-1.20
2022-12-11T04:12:04.707Z,-1.30
2022-12-11T04:14:53.605Z,-1.30
2022-12-11T04:17:37.713Z,-1.30
2022-12-11T04:20:27.399Z,-1.30
2022-12-11T04:23:16.059Z,-1.30
2022-12-11T04:25:46.271Z,-1.30
2022-12-11T04:28:16.104Z,-1.30
2022-12-11T04:30:51.799Z,-1.30
2022-12-11T04:33:21.814Z,-1.30
2022-12-11T04:35:50.338Z,-1.30
2022-12-11T04:38:19.260Z,-1.30
2022-12-11T04:40:49.479Z,-1.30
2022-12-11T04:43:18.312Z,-1.30
2022-12-11T04:45:46.918Z,-1.30
2022-12-11T04:48:15.441Z,-1.30
2022-12-11T04:50:46.446Z,-1.30
2022-12-11T04:53:15.818Z,-1.30
2022-12-11T04:55:44.200Z,-1.30
2022-12-11T04:58:12.564Z,-1.30
2022-12-11T05:00:44.049Z,-1.30
2022-12-11T05:03:12.319Z,-1.30
2022-12-11T05:05:40.788Z,-1.20
2022-12-11T05:08:12.180Z,-1.30
2022-12-11T05:10:47.138Z,-1.30
2022-12-11T05:13:21.486Z,-1.40
2022-12-11T05:15:50.548Z,-1.40
2022-12-11T05:18:18.881Z,-1.40
2022-12-11T05:20:56.373Z,-1.40
2022-12-11T05:23:27.201Z,-1.40
2022-12-11T05:25:56.330Z,-1.40
2022-12-11T05:28:26.300Z,-1.40
2022-12-11T05:30:58.374Z,-1.40
2022-12-11T05:33:26.975Z,-1.40
2022-12-11T05:35:57.771Z,-1.40
2022-12-11T05:38:28.258Z,-1.40
2022-12-11T05:40:59.282Z,-1.40
2022-12-11T05:43:30.084Z,-1.40
2022-12-11T05:46:10.893Z,-1.50
2022-12-11T05:48:41.544Z,-1.50
2022-12-11T05:51:11.662Z,-1.50
2022-12-11T05:53:44.356Z,-1.50
2022-12-11T05:56:14.870Z,-1.40
2022-12-11T05:58:47.700Z,-1.40
2022-12-11T06:01:19.896Z,-1.40
2022-12-11T06:03:49.196Z,-1.40
2022-12-11T06:06:21.642Z,-1.40
2022-12-11T06:08:53.276Z,-1.40
2022-12-11T06:11:24.394Z,-1.40
2022-12-11T06:13:54.331Z,-1.40
2022-12-11T06:16:23.578Z,-1.40
2022-12-11T06:18:55.822Z,-1.40
2022-12-11T06:21:28.952Z,-1.30
2022-12-11T06:24:01.573Z,-1.40
2022-12-11T06:26:33.396Z,-1.40
2022-12-11T06:29:05.296Z,-1.40
2022-12-11T06:31:38.534Z,-1.40
2022-12-11T06:34:06.898Z,-1.40
2022-12-11T06:36:36.065Z,-1.50
2022-12-11T06:39:06.501Z,-1.60
2022-12-11T06:41:36.773Z,-1.60
2022-12-11T06:44:07.746Z,-1.60
2022-12-11T06:46:38.069Z,-1.60
2022-12-11T06:49:06.560Z,-1.60
2022-12-11T06:51:35.027Z,-1.60
2022-12-11T06:54:06.582Z,-1.60
2022-12-11T06:56:36.395Z,-1.60
2022-12-11T06:59:07.458Z,-1.50
2022-12-11T07:01:36.309Z,-1.60
2022-12-11T07:04:06.236Z,-1.50
2022-12-11T07:06:35.365Z,-1.50
2022-12-11T07:09:07.703Z,-1.50
2022-12-11T07:11:36.198Z,-1.50
2022-12-11T07:14:04.890Z,-1.50
2022-12-11T07:16:35.629Z,-1.50
2022-12-11T07:19:04.918Z,-1.40
2022-12-11T07:21:34.244Z,-1.30
2022-12-11T07:24:02.794Z,-1.30
2022-12-11T07:26:33.021Z,-1.40
2022-12-11T07:29:01.826Z,-1.40
2022-12-11T07:31:31.964Z,-1.40
2022-12-11T07:34:03.040Z,-1.40
2022-12-11T07:36:32.681Z,-1.50
2022-12-11T07:39:01.775Z,-1.50
2022-12-11T07:41:31.766Z,-1.50
2022-12-11T07:44:04.036Z,-1.50
2022-12-11T07:46:35.218Z,-1.60
2022-12-11T07:49:06.704Z,-1.50
2022-12-11T07:51:37.947Z,-1.60
2022-12-11T07:54:08.926Z,-1.50
2022-12-11T07:56:37.606Z,-1.50
2022-12-11T07:59:08.368Z,-1.50
2022-12-11T08:01:38.597Z,-1.50
2022-12-11T08:04:10.103Z,-1.50
2022-12-11T08:06:42.304Z,-1.40
2022-12-11T08:09:17.426Z,-1.40
2022-12-11T08:11:50.292Z,-1.40
2022-12-11T08:14:21.983Z,-1.40
2022-12-11T08:16:51.028Z,-1.40
2022-12-11T08:19:19.546Z,-1.40
2022-12-11T08:21:47.966Z,-1.40
2022-12-11T08:24:21.415Z,-1.40
2022-12-11T08:26:50.403Z,-1.40
2022-12-11T08:29:21.976Z,-1.40
2022-12-11T08:31:50.596Z,-1.40
2022-12-11T08:34:19.545Z,-1.40
2022-12-11T08:36:48.565Z,-1.40
2022-12-11T08:39:17.086Z,-1.30
2022-12-11T08:41:45.674Z,-1.30
2022-12-11T08:44:16.994Z,-1.30
2022-12-11T08:46:49.799Z,-1.40
2022-12-11T08:49:18.516Z,-1.30
2022-12-11T08:51:47.653Z,-1.30
2022-12-11T08:54:18.514Z,-1.30
2022-12-11T08:56:47.336Z,-1.20
2022-12-11T08:59:15.948Z,-1.20
2022-12-11T09:01:44.734Z,-1.20
2022-12-11T09:04:16.770Z,-1.20
2022-12-11T09:06:45.834Z,-1.20
2022-12-11T09:09:16.374Z,-1.20
2022-12-11T09:11:45.801Z,-1.20
2022-12-11T09:14:16.222Z,-1.20
2022-12-11T09:16:45.868Z,-1.20
2022-12-11T09:19:20.413Z,-1.20
2022-12-11T09:21:52.029Z,-1.10
2022-12-11T09:24:21.728Z,-1.20
2022-12-11T09:26:55.634Z,-1.10
2022-12-11T09:29:25.340Z,-1.20
2022-12-11T09:31:55.385Z,-1.20
2022-12-11T09:34:29.371Z,-1.20
2022-12-11T09:36:59.918Z,-1.20
2022-12-11T09:39:29.041Z,-1.20
2022-12-11T09:42:08.556Z,-1.10
2022-12-11T09:44:47.045Z,-1.20
2022-12-11T09:47:35.122Z,-1.20
2022-12-11T09:50:19.479Z,-1.10
2022-12-11T09:52:58.386Z,-1.10
2022-12-11T09:55:31.556Z,-1.10
2022-12-11T09:58:08.233Z,-1.00
2022-12-11T10:00:43.067Z,-1.00
2022-12-11T10:03:43.685Z,-1.00
2022-12-11T10:06:22.944Z,-1.00
2022-12-11T10:09:02.039Z,-0.90
2022-12-11T10:11:57.113Z,-1.00
2022-12-11T10:14:38.469Z,-0.90
2022-12-11T10:17:16.030Z,-0.80
2022-12-11T10:19:46.147Z,-0.80
2022-12-11T10:22:22.871Z,-0.80
2022-12-11T10:25:13.016Z,-0.80
2022-12-11T10:27:45.251Z,-0.80
2022-12-11T10:30:18.385Z,-0.90
2022-12-11T10:32:56.066Z,-1.00
2022-12-11T10:35:35.716Z,-0.90
2022-12-11T10:38:17.020Z,-0.90
2022-12-11T10:40:51.208Z,-0.90
2022-12-11T10:43:21.245Z,-0.90
2022-12-11T10:45:56.191Z,-0.90
2022-12-11T10:48:27.854Z,-0.90
2022-12-11T10:51:02.869Z,-0.90
2022-12-11T10:53:36.027Z,-0.80
2022-12-11T10:56:05.355Z,-0.80
2022-12-11T10:58:39.379Z,-0.80
2022-12-11T11:01:11.031Z,-0.70
2022-12-11T11:03:55.421Z,-0.60
2022-12-11T11:06:26.242Z,-0.60
2022-12-11T11:09:00.819Z,-0.50
2022-12-11T11:11:33.835Z,-0.50
2022-12-11T11:14:18.091Z,-0.40
2022-12-11T11:16:50.282Z,-0.40
2022-12-11T11:19:26.133Z,-0.40
2022-12-11T11:21:58.380Z,-0.30
2022-12-11T11:24:37.750Z,-0.30
2022-12-11T11:27:15.856Z,-0.30
2022-12-11T11:29:48.966Z,-0.30
2022-12-11T11:32:27.360Z,-0.30
2022-12-11T11:35:16.732Z,-0.30
2022-12-11T11:37:48.880Z,-0.20
2022-12-11T11:40:26.142Z,-0.20
2022-12-11T11:43:08.576Z,-0.20
2022-12-11T11:45:47.590Z,-0.20
2022-12-11T11:48:32.291Z,-0.10
2022-12-11T11:51:07.348Z,-0.10
2022-12-11T11:53:41.467Z,0.00
2022-12-11T11:56:23.312Z,0.00
2022-12-11T11:59:02.303Z,0.10
2022-12-11T12:01:31.701Z,0.00
2022-12-11T12:04:04.485Z,0.00
2022-12-11T12:07:13.210Z,0.10
2022-12-11T12:09:53.102Z,0.10
2022-12-11T12:12:35.805Z,0.10
2022-12-11T12:15:18.371Z,0.20
2022-12-11T12:17:55.978Z,0.20
2022-12-11T12:20:40.052Z,0.30
2022-12-11T12:23:34.921Z,0.30
2022-12-11T12:26:13.856Z,0.40
2022-12-11T12:28:54.182Z,0.30
2022-12-11T12:31:39.281Z,0.30
2022-12-11T12:34:20.218Z,0.10
2022-12-11T12:36:57.269Z,0.10
2022-12-11T12:39:34.256Z,0.00
2022-12-11T12:42:13.143Z,0.10
2022-12-11T12:44:56.168Z,0.10
2022-12-11T12:47:25.851Z,0.20
2022-12-11T12:49:55.787Z,0.20
2022-12-11T12:52:35.684Z,0.30
2022-12-11T12:55:19.153Z,0.30
2022-12-11T12:57:53.309Z,0.40
2022-12-11T13:00:37.393Z,0.40
2022-12-11T13:03:15.834Z,0.30
2022-12-11T13:05:50.250Z,0.30
2022-12-11T13:08:30.733Z,0.30
2022-12-11T13:11:03.798Z,0.30
2022-12-11T13:13:36.656Z,0.30
2022-12-11T13:16:27.377Z,0.30
2022-12-11T13:18:58.597Z,0.30
2022-12-11T13:21:33.703Z,0.30
2022-12-11T13:24:18.072Z,0.20
2022-12-11T13:26:50.908Z,0.30
2022-12-11T13:29:36.847Z,0.30
2022-12-11T13:32:24.832Z,0.10
2022-12-11T13:34:57.605Z,0.00
2022-12-11T13:37:35.113Z,0.00
2022-12-11T13:40:10.344Z,0.00
2022-12-11T13:42:50.957Z,-0.10
2022-12-11T13:45:24.392Z,-0.10
2022-12-11T13:47:56.249Z,-0.10
2022-12-11T13:50:30.187Z,-0.10
2022-12-11T13:53:00.842Z,-0.10
2022-12-11T13:55:31.521Z,-0.20
2022-12-11T13:58:00.888Z,-0.20
2022-12-11T14:00:33.124Z,-0.20
2022-12-11T14:03:07.758Z,-0.20
2022-12-11T14:05:37.498Z,-0.20
2022-12-11T14:08:10.487Z,-0.20
2022-12-11T14:10:41.573Z,-0.20
2022-12-11T14:13:22.019Z,-0.20
2022-12-11T14:15:51.636Z,-0.20
2022-12-11T14:18:25.558Z,-0.20
2022-12-11T14:20:58.313Z,-0.20
2022-12-11T14:23:30.686Z,-0.20
2022-12-11T14:26:00.906Z,-0.20
2022-12-11T14:28:37.889Z,-0.20
2022-12-11T14:31:15.435Z,-0.20
2022-12-11T14:33:49.713Z,-0.10
2022-12-11T14:36:18.754Z,-0.20
2022-12-11T14:38:51.572Z,-0.10
2022-12-11T14:41:29.026Z,-0.10
2022-12-11T14:44:01.964Z,-0.10
2022-12-11T14:46:42.014Z,-0.10
2022-12-11T14:49:24.007Z,-0.10
2022-12-11T14:51:55.306Z,-0.10
2022-12-11T14:54:31.322Z,-0.10
2022-12-11T14:57:06.171Z,-0.10
2022-12-11T14:59:47.310Z,-0.10
2022-12-11T15:02:31.342Z,-0.10
2022-12-11T15:05:16.338Z,-0.20
2022-12-11T15:07:55.134Z,-0.10
2022-12-11T15:10:27.643Z,-0.10
2022-12-11T15:12:56.430Z,-0.10
2022-12-11T15:15:25.514Z,-0.10
2022-12-11T15:17:54.693Z,-0.10
2022-12-11T15:20:28.024Z,0.00
2022-12-11T15:23:01.777Z,-0.10
2022-12-11T15:25:32.702Z,-0.10
2022-12-11T15:28:02.631Z,-0.10
2022-12-11T15:30:35.923Z,0.00
2022-12-11T15:33:22.292Z,0.00
2022-12-11T15:36:24.579Z,0.00
2022-12-11T15:38:54.715Z,-0.10
2022-12-11T15:41:24.685Z,0.00
2022-12-11T15:43:58.527Z,0.00
2022-12-11T15:46:27.853Z,0.00
2022-12-11T15:48:58.223Z,0.00
2022-12-11T15:51:42.513Z,0.00
2022-12-11T15:54:11.711Z,0.10
2022-12-11T15:56:41.515Z,0.20
2022-12-11T15:59:13.103Z,0.10
2022-12-11T16:01:42.348Z,0.10
2022-12-11T16:04:14.177Z,0.10
2022-12-11T16:06:46.851Z,0.10
2022-12-11T16:09:15.530Z,0.10
2022-12-11T16:11:49.138Z,0.10
2022-12-11T16:14:17.954Z,0.10
2022-12-11T16:16:47.497Z,0.10
2022-12-11T16:19:16.385Z,0.10
2022-12-11T16:21:46.229Z,0.10
2022-12-11T16:24:16.661Z,0.10
2022-12-11T16:26:45.168Z,0.10
2022-12-11T16:29:13.744Z,0.10
2022-12-11T16:31:43.035Z,0.10
2022-12-11T16:34:12.824Z,0.10
2022-12-11T16:36:41.632Z,0.10
2022-12-11T16:39:12.459Z,0.10
2022-12-11T16:41:42.286Z,0.10
2022-12-11T16:44:12.137Z,0.10
2022-12-11T16:46:41.145Z,0.10
2022-12-11T16:49:09.681Z,0.10
2022-12-11T16:51:38.633Z,0.10
2022-12-11T16:54:07.200Z,0.10
2022-12-11T16:56:38.464Z,0.00
2022-12-11T16:59:07.166Z,0.10
2022-12-11T17:01:36.529Z,0.10
2022-12-11T17:04:07.005Z,0.10
2022-12-11T17:06:36.033Z,0.10
2022-12-11T17:09:06.226Z,0.10
2022-12-11T17:11:38.937Z,0.10
2022-12-11T17:14:09.020Z,0.10
2022-12-11T17:16:38.352Z,0.10
2022-12-11T17:19:09.922Z,0.10
2022-12-11T17:21:38.381Z,0.10
2022-12-11T17:24:08.909Z,0.10
2022-12-11T17:26:39.554Z,0.10
2022-12-11T17:29:08.716Z,0.10
2022-12-11T17:31:37.332Z,0.00
2022-12-11T17:34:06.265Z,0.00
2022-12-11T17:36:36.790Z,-0.10
2022-12-11T17:39:05.543Z,-0.20
2022-12-11T17:41:35.562Z,-0.20
2022-12-11T17:44:06.031Z,-0.20
2022-12-11T17:46:35.913Z,-0.20
2022-12-11T17:49:06.092Z,-0.20
2022-12-11T17:51:36.218Z,-0.20
2022-12-11T17:54:05.005Z,-0.20
2022-12-11T17:56:36.235Z,-0.20
2022-12-11T17:59:07.037Z,-0.10
2022-12-11T18:01:35.828Z,-0.10
2022-12-11T18:04:06.214Z,-0.10
2022-12-11T18:06:36.937Z,-0.10
2022-12-11T18:09:05.670Z,-0.10
2022-12-11T18:11:35.959Z,0.00
2022-12-11T18:14:04.749Z,0.00
2022-12-11T18:16:38.363Z,0.00
2022-12-11T18:19:09.583Z,0.00
2022-12-11T18:21:43.350Z,0.00
2022-12-11T18:24:12.554Z,0.00
2022-12-11T18:26:42.919Z,0.00
2022-12-11T18:29:11.820Z,0.00
2022-12-11T18:31:43.410Z,0.00
2022-12-11T18:34:12.496Z,0.00
2022-12-11T18:36:42.021Z,0.10
2022-12-11T18:39:11.528Z,0.10
2022-12-11T18:41:39.954Z,0.10
2022-12-11T18:44:10.114Z,0.10
2022-12-11T18:46:39.802Z,0.00
2022-12-11T18:49:12.178Z,0.00
2022-12-11T18:51:42.113Z,0.00
2022-12-11T18:54:11.195Z,0.00
2022-12-11T18:56:41.975Z,-0.10
2022-12-11T18:59:13.845Z,-0.10
2022-12-11T19:01:42.843Z,-0.10
2022-12-11T19:04:12.733Z,-0.10
2022-12-11T19:06:41.691Z,-0.10
2022-12-11T19:09:10.409Z,-0.10
2022-12-11T19:11:44.128Z,-0.10
2022-12-11T19:14:14.526Z,-0.10
2022-12-11T19:16:46.464Z,-0.10
2022-12-11T19:19:19.634Z,-0.10
2022-12-11T19:21:51.140Z,-0.10
2022-12-11T19:24:22.979Z,-0.10
2022-12-11T19:26:53.219Z,-0.20
2022-12-11T19:29:23.832Z,-0.20
2022-12-11T19:31:53.974Z,-0.20
2022-12-11T19:34:27.132Z,-0.10
2022-12-11T19:36:56.883Z,-0.20
2022-12-11T19:39:25.696Z,-0.20
2022-12-11T19:41:55.338Z,-0.20
2022-12-11T19:44:24.022Z,-0.20
2022-12-11T19:46:54.218Z,-0.20
2022-12-11T19:49:28.161Z,-0.20
2022-12-11T19:51:58.067Z,-0.20
2022-12-11T19:54:29.052Z,-0.20
2022-12-11T19:56:57.827Z,-0.20
2022-12-11T19:59:26.375Z,-0.20
2022-12-11T20:01:55.029Z,-0.20
2022-12-11T20:04:29.933Z,-0.20
2022-12-11T20:06:58.850Z,-0.20
2022-12-11T20:09:27.728Z,-0.20
2022-12-11T20:11:56.599Z,-0.20
2022-12-11T20:14:27.737Z,-0.20
2022-12-11T20:17:13.884Z,-0.20
2022-12-11T20:19:44.712Z,-0.20
2022-12-11T20:22:13.625Z,-0.20
2022-12-11T20:28:27.554Z,-0.20
2022-12-11T20:31:04.472Z,-0.20
2022-12-11T20:33:33.214Z,-0.10
2022-12-11T20:36:07.204Z,-0.20
2022-12-11T20:38:36.238Z,-0.20
2022-12-11T20:41:07.361Z,-0.20
2022-12-11T20:43:36.340Z,-0.20
2022-12-11T20:46:08.236Z,-0.20
2022-12-11T20:48:37.488Z,-0.20
2022-12-11T20:51:11.218Z,-0.20
2022-12-11T20:53:41.291Z,-0.20
2022-12-11T20:56:11.992Z,-0.20
2022-12-11T20:58:42.993Z,-0.20
2022-12-11T21:01:15.335Z,-0.20
2022-12-11T21:03:44.454Z,-0.20
2022-12-11T21:06:21.397Z,-0.20
2022-12-11T21:08:50.057Z,-0.20
2022-12-11T21:11:20.243Z,-0.20
2022-12-11T21:13:52.583Z,-0.20
2022-12-11T21:16:21.966Z,-0.20
2022-12-11T21:18:50.801Z,-0.30
2022-12-11T21:21:21.097Z,-0.30
2022-12-11T21:23:49.471Z,-0.30
2022-12-11T21:26:18.905Z,-0.30
2022-12-11T21:28:48.923Z,-0.30
2022-12-11T21:31:20.753Z,-0.30
2022-12-11T21:33:49.985Z,-0.30
2022-12-11T21:36:23.980Z,-0.30
2022-12-11T21:38:53.978Z,-0.30
2022-12-11T21:41:25.042Z,-0.30
2022-12-11T21:46:44.547Z,-0.30
2022-12-11T21:49:13.334Z,-0.20
2022-12-11T21:51:47.208Z,-0.20
2022-12-11T21:54:21.224Z,-0.20
2022-12-11T21:56:51.034Z,-0.20
2022-12-11T21:59:20.705Z,-0.20
2022-12-11T22:01:49.587Z,-0.30
2022-12-11T22:04:19.549Z,-0.30
2022-12-11T22:06:51.123Z,-0.30
2022-12-11T22:09:20.401Z,-0.30
2022-12-11T22:11:51.515Z,-0.30
2022-12-11T22:14:23.320Z,-0.30
2022-12-11T22:16:54.112Z,-0.30
2022-12-11T22:19:23.961Z,-0.30
2022-12-11T22:21:55.613Z,-0.40
2022-12-11T22:24:26.131Z,-0.40
2022-12-11T22:26:55.326Z,-0.40
2022-12-11T22:29:23.494Z,-0.40
2022-12-11T22:31:52.869Z,-0.30
2022-12-11T22:34:21.501Z,-0.40
2022-12-11T22:36:51.200Z,-0.40
2022-12-11T22:39:20.935Z,-0.40
2022-12-11T22:41:53.233Z,-0.40
2022-12-11T22:44:23.822Z,-0.40
2022-12-11T22:46:52.989Z,-0.40
2022-12-11T22:49:24.265Z,-0.40
2022-12-11T22:51:53.557Z,-0.40
2022-12-11T22:54:24.269Z,-0.40
2022-12-11T22:56:52.721Z,-0.30
2022-12-11T22:59:21.553Z,-0.30
2022-12-11T23:01:50.774Z,-0.30
2022-12-11T23:04:22.302Z,-0.40
2022-12-11T23:06:50.566Z,-0.40
2022-12-11T23:09:19.356Z,-0.30
2022-12-11T23:11:49.185Z,-0.40
2022-12-11T23:14:20.411Z,-0.40
2022-12-11T23:16:48.732Z,-0.40
2022-12-11T23:19:22.273Z,-0.30
2022-12-11T23:21:55.477Z,-0.30
2022-12-11T23:24:27.024Z,-0.30
2022-12-11T23:26:57.281Z,-0.30
2022-12-11T23:29:27.864Z,-0.30
2022-12-11T23:31:56.823Z,-0.30
2022-12-11T23:34:25.419Z,-0.20
2022-12-11T23:36:53.795Z,-0.30
2022-12-11T23:39:21.970Z,-0.30
2022-12-11T23:41:51.415Z,-0.30
2022-12-11T23:44:21.773Z,-0.30
2022-12-11T23:46:50.378Z,-0.30
2022-12-11T23:49:20.758Z,-0.30
2022-12-11T23:51:49.595Z,-0.30
2022-12-11T23:54:18.383Z,-0.40
2022-12-11T23:56:46.782Z,-0.40
2022-12-11T23:59:15.857Z,-0.30
